sensor_id;sensor_type;location;lat;lon;timestamp;temperature;humidity
17381;DHT22;8808;52.478;13.378;2023-04-03T00:00:10;3.00;99.90
17381;DHT22;8808;52.478;13.378;2023-04-03T00:02:37;3.00;99.90
17381;DHT22;8808;52.478;13.378;2023-04-03T00:05:06;2.90;99.90
17381;DHT22;8808;52.478;13.378;2023-04-03T00:07:35;3.00;99.90
17381;DHT22;8808;52.478;13.378;2023-04-03T00:10:02;2.80;99.90
17381;DHT22;8808;52.478;13.378;2023-04-03T00:12:29;2.90;99.90
17381;DHT22;8808;52.478;13.378;2023-04-03T00:14:56;2.90;99.90
17381;DHT22;8808;52.478;13.378;2023-04-03T00:17:23;2.90;99.90
17381;DHT22;8808;52.478;13.378;2023-04-03T00:19:50;2.90;99.90
17381;DHT22;8808;52.478;13.378;2023-04-03T00:22:17;2.90;99.90
17381;DHT22;8808;52.478;13.378;2023-04-03T00:24:45;2.80;99.90
17381;DHT22;8808;52.478;13.378;2023-04-03T00:27:12;2.80;99.90
17381;DHT22;8808;52.478;13.378;2023-04-03T00:29:39;2.90;99.90
17381;DHT22;8808;52.478;13.378;2023-04-03T00:32:06;2.80;99.90
17381;DHT22;8808;52.478;13.378;2023-04-03T00:34:33;2.70;99.90
17381;DHT22;8808;52.478;13.378;2023-04-03T00:37:00;2.90;99.90
17381;DHT22;8808;52.478;13.378;2023-04-03T00:39:27;2.90;99.90
17381;DHT22;8808;52.478;13.378;2023-04-03T00:41:55;2.80;99.90
17381;DHT22;8808;52.478;13.378;2023-04-03T00:45:21;2.90;99.90
17381;DHT22;8808;52.478;13.378;2023-04-03T00:47:12;2.80;99.90
17381;DHT22;8808;52.478;13.378;2023-04-03T00:49:40;2.80;99.90
17381;DHT22;8808;52.478;13.378;2023-04-03T00:52:10;2.80;99.90
17381;DHT22;8808;52.478;13.378;2023-04-03T00:54:39;2.70;99.90
17381;DHT22;8808;52.478;13.378;2023-04-03T00:57:09;2.60;99.90
17381;DHT22;8808;52.478;13.378;2023-04-03T00:59:40;2.70;99.90
17381;DHT22;8808;52.478;13.378;2023-04-03T01:04:45;2.70;99.90
17381;DHT22;8808;52.478;13.378;2023-04-03T01:07:15;2.70;99.90
17381;DHT22;8808;52.478;13.378;2023-04-03T01:09:45;2.60;99.90
17381;DHT22;8808;52.478;13.378;2023-04-03T01:12:15;2.70;99.90
17381;DHT22;8808;52.478;13.378;2023-04-03T01:14:43;2.60;99.90
17381;DHT22;8808;52.478;13.378;2023-04-03T01:17:26;2.60;99.90
17381;DHT22;8808;52.478;13.378;2023-04-03T01:22:56;2.60;99.90
17381;DHT22;8808;52.478;13.378;2023-04-03T01:25:25;2.60;99.90
17381;DHT22;8808;52.478;13.378;2023-04-03T01:27:54;2.50;99.90
17381;DHT22;8808;52.478;13.378;2023-04-03T01:30:25;2.50;99.90
17381;DHT22;8808;52.478;13.378;2023-04-03T01:32:55;2.50;99.90
17381;DHT22;8808;52.478;13.378;2023-04-03T01:35:22;2.40;99.90
17381;DHT22;8808;52.478;13.378;2023-04-03T01:37:49;2.50;99.90
17381;DHT22;8808;52.478;13.378;2023-04-03T01:40:17;2.50;99.90
17381;DHT22;8808;52.478;13.378;2023-04-03T01:42:43;2.40;99.90
17381;DHT22;8808;52.478;13.378;2023-04-03T01:45:11;2.50;99.90
17381;DHT22;8808;52.478;13.378;2023-04-03T01:47:38;2.30;99.90
17381;DHT22;8808;52.478;13.378;2023-04-03T01:50:07;2.30;99.90
17381;DHT22;8808;52.478;13.378;2023-04-03T01:52:33;2.30;99.90
17381;DHT22;8808;52.478;13.378;2023-04-03T01:55:01;2.30;99.90
17381;DHT22;8808;52.478;13.378;2023-04-03T01:57:27;2.40;99.90
17381;DHT22;8808;52.478;13.378;2023-04-03T01:59:54;2.40;99.90
17381;DHT22;8808;52.478;13.378;2023-04-03T02:02:21;2.40;99.90
17381;DHT22;8808;52.478;13.378;2023-04-03T02:04:48;2.30;99.90
17381;DHT22;8808;52.478;13.378;2023-04-03T02:07:16;2.20;99.90
17381;DHT22;8808;52.478;13.378;2023-04-03T02:09:44;2.20;99.90
17381;DHT22;8808;52.478;13.378;2023-04-03T02:12:10;2.30;99.90
17381;DHT22;8808;52.478;13.378;2023-04-03T02:14:37;2.40;99.90
17381;DHT22;8808;52.478;13.378;2023-04-03T02:17:04;2.30;99.90
17381;DHT22;8808;52.478;13.378;2023-04-03T02:19:34;2.30;99.90
17381;DHT22;8808;52.478;13.378;2023-04-03T02:22:01;2.20;99.90
17381;DHT22;8808;52.478;13.378;2023-04-03T02:24:29;2.30;99.90
17381;DHT22;8808;52.478;13.378;2023-04-03T02:26:56;2.30;99.90
17381;DHT22;8808;52.478;13.378;2023-04-03T02:29:23;2.30;99.90
17381;DHT22;8808;52.478;13.378;2023-04-03T02:31:50;2.30;99.90
17381;DHT22;8808;52.478;13.378;2023-04-03T02:34:17;2.30;99.90
17381;DHT22;8808;52.478;13.378;2023-04-03T02:36:44;2.20;99.90
17381;DHT22;8808;52.478;13.378;2023-04-03T02:39:11;2.20;99.90
17381;DHT22;8808;52.478;13.378;2023-04-03T02:41:40;2.30;99.90
17381;DHT22;8808;52.478;13.378;2023-04-03T02:44:11;2.20;99.90
17381;DHT22;8808;52.478;13.378;2023-04-03T02:46:38;2.20;99.90
17381;DHT22;8808;52.478;13.378;2023-04-03T02:49:06;2.10;99.90
17381;DHT22;8808;52.478;13.378;2023-04-03T02:51:33;2.20;99.90
17381;DHT22;8808;52.478;13.378;2023-04-03T02:54:00;2.20;99.90
17381;DHT22;8808;52.478;13.378;2023-04-03T02:56:27;2.20;99.90
17381;DHT22;8808;52.478;13.378;2023-04-03T02:58:55;2.20;99.90
17381;DHT22;8808;52.478;13.378;2023-04-03T03:01:22;2.20;99.90
17381;DHT22;8808;52.478;13.378;2023-04-03T03:03:49;2.00;99.90
17381;DHT22;8808;52.478;13.378;2023-04-03T03:06:17;2.10;99.90
17381;DHT22;8808;52.478;13.378;2023-04-03T03:08:44;2.00;99.90
17381;DHT22;8808;52.478;13.378;2023-04-03T03:11:11;2.10;99.90
17381;DHT22;8808;52.478;13.378;2023-04-03T03:13:38;2.20;99.90
17381;DHT22;8808;52.478;13.378;2023-04-03T03:16:07;2.30;99.90
17381;DHT22;8808;52.478;13.378;2023-04-03T03:18:34;2.10;99.90
17381;DHT22;8808;52.478;13.378;2023-04-03T03:21:02;2.10;99.90
17381;DHT22;8808;52.478;13.378;2023-04-03T03:23:30;2.00;99.90
17381;DHT22;8808;52.478;13.378;2023-04-03T03:26:01;2.00;99.90
17381;DHT22;8808;52.478;13.378;2023-04-03T03:28:28;2.00;99.90
17381;DHT22;8808;52.478;13.378;2023-04-03T03:30:56;2.10;99.90
17381;DHT22;8808;52.478;13.378;2023-04-03T03:33:24;2.00;99.90
17381;DHT22;8808;52.478;13.378;2023-04-03T03:35:52;2.00;99.90
17381;DHT22;8808;52.478;13.378;2023-04-03T03:38:19;2.00;99.90
17381;DHT22;8808;52.478;13.378;2023-04-03T03:40:47;1.90;99.90
17381;DHT22;8808;52.478;13.378;2023-04-03T03:43:15;1.90;99.90
17381;DHT22;8808;52.478;13.378;2023-04-03T03:45:43;1.80;99.90
17381;DHT22;8808;52.478;13.378;2023-04-03T03:48:11;1.70;99.90
17381;DHT22;8808;52.478;13.378;2023-04-03T03:50:39;1.70;99.90
17381;DHT22;8808;52.478;13.378;2023-04-03T03:53:06;1.70;99.90
17381;DHT22;8808;52.478;13.378;2023-04-03T03:55:33;1.70;99.90
17381;DHT22;8808;52.478;13.378;2023-04-03T03:58:00;1.80;99.90
17381;DHT22;8808;52.478;13.378;2023-04-03T04:00:28;1.90;99.90
17381;DHT22;8808;52.478;13.378;2023-04-03T04:02:55;1.80;99.90
17381;DHT22;8808;52.478;13.378;2023-04-03T04:05:22;1.70;99.90
17381;DHT22;8808;52.478;13.378;2023-04-03T04:07:51;1.80;99.90
17381;DHT22;8808;52.478;13.378;2023-04-03T04:10:18;1.90;99.90
17381;DHT22;8808;52.478;13.378;2023-04-03T04:12:45;1.80;99.90
17381;DHT22;8808;52.478;13.378;2023-04-03T04:15:12;1.80;99.90
17381;DHT22;8808;52.478;13.378;2023-04-03T04:17:39;1.80;99.90
17381;DHT22;8808;52.478;13.378;2023-04-03T04:20:06;1.60;99.90
17381;DHT22;8808;52.478;13.378;2023-04-03T04:22:34;1.50;99.90
17381;DHT22;8808;52.478;13.378;2023-04-03T04:25:02;1.60;99.90
17381;DHT22;8808;52.478;13.378;2023-04-03T04:27:29;1.70;99.90
17381;DHT22;8808;52.478;13.378;2023-04-03T04:29:56;1.50;99.90
17381;DHT22;8808;52.478;13.378;2023-04-03T04:32:23;1.50;99.90
17381;DHT22;8808;52.478;13.378;2023-04-03T04:34:50;1.50;99.90
17381;DHT22;8808;52.478;13.378;2023-04-03T04:37:17;1.40;99.90
17381;DHT22;8808;52.478;13.378;2023-04-03T04:39:44;1.50;99.90
17381;DHT22;8808;52.478;13.378;2023-04-03T04:42:12;1.60;99.90
17381;DHT22;8808;52.478;13.378;2023-04-03T04:44:40;1.50;99.90
17381;DHT22;8808;52.478;13.378;2023-04-03T04:47:07;1.40;99.90
17381;DHT22;8808;52.478;13.378;2023-04-03T04:49:34;1.60;99.90
17381;DHT22;8808;52.478;13.378;2023-04-03T04:52:01;1.50;99.90
17381;DHT22;8808;52.478;13.378;2023-04-03T04:54:28;1.60;99.90
17381;DHT22;8808;52.478;13.378;2023-04-03T04:56:55;1.70;99.90
17381;DHT22;8808;52.478;13.378;2023-04-03T04:59:24;1.60;99.90
17381;DHT22;8808;52.478;13.378;2023-04-03T05:01:51;1.70;99.90
17381;DHT22;8808;52.478;13.378;2023-04-03T05:04:17;1.60;99.90
17381;DHT22;8808;52.478;13.378;2023-04-03T05:06:45;1.60;99.90
17381;DHT22;8808;52.478;13.378;2023-04-03T05:09:12;1.60;99.90
17381;DHT22;8808;52.478;13.378;2023-04-03T05:11:39;1.60;99.90
17381;DHT22;8808;52.478;13.378;2023-04-03T05:14:06;1.70;99.90
17381;DHT22;8808;52.478;13.378;2023-04-03T05:16:34;1.90;99.90
17381;DHT22;8808;52.478;13.378;2023-04-03T05:19:01;2.10;99.90
17381;DHT22;8808;52.478;13.378;2023-04-03T05:21:28;2.20;99.90
17381;DHT22;8808;52.478;13.378;2023-04-03T05:23:57;2.20;99.90
17381;DHT22;8808;52.478;13.378;2023-04-03T05:26:25;2.20;99.90
17381;DHT22;8808;52.478;13.378;2023-04-03T05:28:52;2.10;99.90
17381;DHT22;8808;52.478;13.378;2023-04-03T05:31:19;2.20;99.90
17381;DHT22;8808;52.478;13.378;2023-04-03T05:33:48;2.20;99.90
17381;DHT22;8808;52.478;13.378;2023-04-03T05:36:15;2.40;99.90
17381;DHT22;8808;52.478;13.378;2023-04-03T05:38:42;2.60;99.90
17381;DHT22;8808;52.478;13.378;2023-04-03T05:41:09;2.90;99.90
17381;DHT22;8808;52.478;13.378;2023-04-03T05:43:36;3.10;99.90
17381;DHT22;8808;52.478;13.378;2023-04-03T05:46:06;3.20;99.90
17381;DHT22;8808;52.478;13.378;2023-04-03T05:48:35;3.30;99.90
17381;DHT22;8808;52.478;13.378;2023-04-03T05:51:04;3.80;99.90
17381;DHT22;8808;52.478;13.378;2023-04-03T05:53:35;3.80;99.90
17381;DHT22;8808;52.478;13.378;2023-04-03T05:56:03;4.00;99.90
17381;DHT22;8808;52.478;13.378;2023-04-03T05:58:30;4.40;99.90
17381;DHT22;8808;52.478;13.378;2023-04-03T06:00:57;4.50;99.90
17381;DHT22;8808;52.478;13.378;2023-04-03T06:03:24;4.90;99.90
17381;DHT22;8808;52.478;13.378;2023-04-03T06:05:51;5.00;99.90
17381;DHT22;8808;52.478;13.378;2023-04-03T06:08:20;5.20;99.90
17381;DHT22;8808;52.478;13.378;2023-04-03T06:10:47;5.40;99.90
17381;DHT22;8808;52.478;13.378;2023-04-03T06:13:14;5.50;99.90
17381;DHT22;8808;52.478;13.378;2023-04-03T06:15:41;5.60;99.90
17381;DHT22;8808;52.478;13.378;2023-04-03T06:18:08;6.00;99.90
17381;DHT22;8808;52.478;13.378;2023-04-03T06:20:35;6.10;99.90
17381;DHT22;8808;52.478;13.378;2023-04-03T06:23:02;5.50;99.90
17381;DHT22;8808;52.478;13.378;2023-04-03T06:25:31;5.60;99.90
17381;DHT22;8808;52.478;13.378;2023-04-03T06:27:59;6.00;99.90
17381;DHT22;8808;52.478;13.378;2023-04-03T06:30:26;6.30;99.90
17381;DHT22;8808;52.478;13.378;2023-04-03T06:32:53;6.20;99.90
17381;DHT22;8808;52.478;13.378;2023-04-03T06:35:21;6.60;99.90
17381;DHT22;8808;52.478;13.378;2023-04-03T06:37:49;6.20;99.90
17381;DHT22;8808;52.478;13.378;2023-04-03T06:40:19;6.20;99.90
17381;DHT22;8808;52.478;13.378;2023-04-03T06:42:48;6.40;99.90
17381;DHT22;8808;52.478;13.378;2023-04-03T06:45:16;6.50;99.90
17381;DHT22;8808;52.478;13.378;2023-04-03T06:47:43;6.50;99.90
17381;DHT22;8808;52.478;13.378;2023-04-03T06:50:10;6.80;99.50
17381;DHT22;8808;52.478;13.378;2023-04-03T06:52:40;7.30;98.90
17381;DHT22;8808;52.478;13.378;2023-04-03T06:55:07;7.30;99.70
17381;DHT22;8808;52.478;13.378;2023-04-03T06:57:35;7.50;98.60
17381;DHT22;8808;52.478;13.378;2023-04-03T07:00:04;7.70;98.00
17381;DHT22;8808;52.478;13.378;2023-04-03T07:02:32;6.70;98.10
17381;DHT22;8808;52.478;13.378;2023-04-03T07:04:59;7.10;98.40
17381;DHT22;8808;52.478;13.378;2023-04-03T07:07:26;6.90;97.30
17381;DHT22;8808;52.478;13.378;2023-04-03T07:09:53;7.20;98.10
17381;DHT22;8808;52.478;13.378;2023-04-03T07:12:20;7.30;97.00
17381;DHT22;8808;52.478;13.378;2023-04-03T07:14:47;7.60;95.50
17381;DHT22;8808;52.478;13.378;2023-04-03T07:17:15;7.70;93.20
17381;DHT22;8808;52.478;13.378;2023-04-03T07:19:42;7.90;93.90
17381;DHT22;8808;52.478;13.378;2023-04-03T07:22:09;8.00;93.30
17381;DHT22;8808;52.478;13.378;2023-04-03T07:24:37;8.00;94.30
17381;DHT22;8808;52.478;13.378;2023-04-03T07:27:04;7.60;94.80
17381;DHT22;8808;52.478;13.378;2023-04-03T07:29:34;8.00;93.10
17381;DHT22;8808;52.478;13.378;2023-04-03T07:32:01;8.70;91.00
17381;DHT22;8808;52.478;13.378;2023-04-03T07:34:29;8.00;91.80
17381;DHT22;8808;52.478;13.378;2023-04-03T07:36:56;7.50;91.90
17381;DHT22;8808;52.478;13.378;2023-04-03T07:39:23;7.50;92.50
17381;DHT22;8808;52.478;13.378;2023-04-03T07:41:51;6.80;91.90
17381;DHT22;8808;52.478;13.378;2023-04-03T07:44:18;7.30;93.60
17381;DHT22;8808;52.478;13.378;2023-04-03T07:46:44;7.00;92.10
17381;DHT22;8808;52.478;13.378;2023-04-03T07:49:12;6.60;92.50
17381;DHT22;8808;52.478;13.378;2023-04-03T07:51:40;6.30;92.90
17381;DHT22;8808;52.478;13.378;2023-04-03T07:54:07;6.10;93.00
17381;DHT22;8808;52.478;13.378;2023-04-03T07:56:34;5.90;91.70
17381;DHT22;8808;52.478;13.378;2023-04-03T07:59:01;5.90;92.90
17381;DHT22;8808;52.478;13.378;2023-04-03T08:01:28;6.10;91.70
17381;DHT22;8808;52.478;13.378;2023-04-03T08:03:58;6.10;93.20
17381;DHT22;8808;52.478;13.378;2023-04-03T08:06:24;5.80;92.80
17381;DHT22;8808;52.478;13.378;2023-04-03T08:08:53;6.20;92.60
17381;DHT22;8808;52.478;13.378;2023-04-03T08:11:20;5.80;91.70
17381;DHT22;8808;52.478;13.378;2023-04-03T08:13:49;5.60;92.90
17381;DHT22;8808;52.478;13.378;2023-04-03T08:16:18;6.10;92.90
17381;DHT22;8808;52.478;13.378;2023-04-03T08:18:46;5.60;92.60
17381;DHT22;8808;52.478;13.378;2023-04-03T08:21:13;5.70;93.90
17381;DHT22;8808;52.478;13.378;2023-04-03T08:23:41;5.60;93.00
17381;DHT22;8808;52.478;13.378;2023-04-03T08:26:13;6.10;93.10
17381;DHT22;8808;52.478;13.378;2023-04-03T08:28:41;6.10;92.50
17381;DHT22;8808;52.478;13.378;2023-04-03T08:31:10;6.00;93.20
17381;DHT22;8808;52.478;13.378;2023-04-03T08:33:38;5.90;94.20
17381;DHT22;8808;52.478;13.378;2023-04-03T08:36:06;5.50;92.50
17381;DHT22;8808;52.478;13.378;2023-04-03T08:38:34;5.50;93.20
17381;DHT22;8808;52.478;13.378;2023-04-03T08:41:14;5.50;93.20
17381;DHT22;8808;52.478;13.378;2023-04-03T08:43:58;5.60;93.40
17381;DHT22;8808;52.478;13.378;2023-04-03T08:46:43;5.40;92.80
17381;DHT22;8808;52.478;13.378;2023-04-03T08:49:21;5.60;92.50
17381;DHT22;8808;52.478;13.378;2023-04-03T08:51:50;5.50;92.70
17381;DHT22;8808;52.478;13.378;2023-04-03T08:54:24;5.40;93.30
17381;DHT22;8808;52.478;13.378;2023-04-03T08:56:56;5.30;93.10
17381;DHT22;8808;52.478;13.378;2023-04-03T08:59:28;5.30;93.20
17381;DHT22;8808;52.478;13.378;2023-04-03T09:01:58;5.40;93.30
17381;DHT22;8808;52.478;13.378;2023-04-03T09:04:28;5.30;92.60
17381;DHT22;8808;52.478;13.378;2023-04-03T09:07:03;5.30;92.90
17381;DHT22;8808;52.478;13.378;2023-04-03T09:09:35;5.30;92.90
17381;DHT22;8808;52.478;13.378;2023-04-03T09:12:15;5.30;93.20
17381;DHT22;8808;52.478;13.378;2023-04-03T09:14:50;5.50;93.20
17381;DHT22;8808;52.478;13.378;2023-04-03T09:17:31;5.60;92.80
17381;DHT22;8808;52.478;13.378;2023-04-03T09:20:11;5.70;92.90
17381;DHT22;8808;52.478;13.378;2023-04-03T09:22:43;6.00;91.60
17381;DHT22;8808;52.478;13.378;2023-04-03T09:25:13;6.70;91.20
17381;DHT22;8808;52.478;13.378;2023-04-03T09:27:44;7.10;90.10
17381;DHT22;8808;52.478;13.378;2023-04-03T09:30:14;6.90;89.40
17381;DHT22;8808;52.478;13.378;2023-04-03T09:32:43;6.20;88.30
17381;DHT22;8808;52.478;13.378;2023-04-03T09:35:20;6.00;89.50
17381;DHT22;8808;52.478;13.378;2023-04-03T09:37:49;5.90;88.80
17381;DHT22;8808;52.478;13.378;2023-04-03T09:40:35;5.90;90.40
17381;DHT22;8808;52.478;13.378;2023-04-03T09:43:21;6.20;90.00
17381;DHT22;8808;52.478;13.378;2023-04-03T09:45:50;7.00;88.40
17381;DHT22;8808;52.478;13.378;2023-04-03T10:00:21;7.10;86.70
17381;DHT22;8808;52.478;13.378;2023-04-03T10:02:51;6.20;87.70
17381;DHT22;8808;52.478;13.378;2023-04-03T10:05:29;6.00;86.60
17381;DHT22;8808;52.478;13.378;2023-04-03T10:08:11;6.20;88.10
17381;DHT22;8808;52.478;13.378;2023-04-03T10:10:38;6.20;90.10
17381;DHT22;8808;52.478;13.378;2023-04-03T10:13:09;6.10;88.70
17381;DHT22;8808;52.478;13.378;2023-04-03T10:15:42;6.00;90.20
17381;DHT22;8808;52.478;13.378;2023-04-03T10:18:24;6.00;90.00
17381;DHT22;8808;52.478;13.378;2023-04-03T10:20:59;6.00;89.30
17381;DHT22;8808;52.478;13.378;2023-04-03T10:23:31;6.10;90.00
17381;DHT22;8808;52.478;13.378;2023-04-03T10:26:07;6.30;89.40
17381;DHT22;8808;52.478;13.378;2023-04-03T10:28:45;6.20;90.10
17381;DHT22;8808;52.478;13.378;2023-04-03T10:31:20;6.40;89.10
17381;DHT22;8808;52.478;13.378;2023-04-03T10:33:58;6.50;90.40
17381;DHT22;8808;52.478;13.378;2023-04-03T10:36:35;6.50;88.20
17381;DHT22;8808;52.478;13.378;2023-04-03T10:39:11;6.50;88.60
17381;DHT22;8808;52.478;13.378;2023-04-03T10:41:50;6.40;86.90
17381;DHT22;8808;52.478;13.378;2023-04-03T10:44:31;6.40;87.90
17381;DHT22;8808;52.478;13.378;2023-04-03T10:47:07;6.50;88.30
17381;DHT22;8808;52.478;13.378;2023-04-03T10:49:44;6.60;88.40
17381;DHT22;8808;52.478;13.378;2023-04-03T10:52:19;6.60;87.50
17381;DHT22;8808;52.478;13.378;2023-04-03T10:54:55;6.60;86.10
17381;DHT22;8808;52.478;13.378;2023-04-03T10:57:23;6.60;85.30
17381;DHT22;8808;52.478;13.378;2023-04-03T10:59:55;6.50;85.70
17381;DHT22;8808;52.478;13.378;2023-04-03T11:02:28;6.50;85.30
17381;DHT22;8808;52.478;13.378;2023-04-03T11:05:00;6.60;86.50
17381;DHT22;8808;52.478;13.378;2023-04-03T11:07:32;7.00;89.00
17381;DHT22;8808;52.478;13.378;2023-04-03T11:10:03;7.10;87.90
17381;DHT22;8808;52.478;13.378;2023-04-03T11:12:38;6.80;88.00
17381;DHT22;8808;52.478;13.378;2023-04-03T11:15:12;6.80;88.70
17381;DHT22;8808;52.478;13.378;2023-04-03T11:17:43;6.90;86.90
17381;DHT22;8808;52.478;13.378;2023-04-03T11:20:17;6.90;86.10
17381;DHT22;8808;52.478;13.378;2023-04-03T11:22:48;6.70;86.00
17381;DHT22;8808;52.478;13.378;2023-04-03T11:25:19;6.60;87.40
17381;DHT22;8808;52.478;13.378;2023-04-03T11:27:54;6.60;88.50
17381;DHT22;8808;52.478;13.378;2023-04-03T11:30:24;6.70;88.00
17381;DHT22;8808;52.478;13.378;2023-04-03T11:33:18;6.80;87.40
17381;DHT22;8808;52.478;13.378;2023-04-03T11:35:51;6.70;86.90
17381;DHT22;8808;52.478;13.378;2023-04-03T11:38:22;6.80;90.00
17381;DHT22;8808;52.478;13.378;2023-04-03T11:40:51;6.80;88.70
17381;DHT22;8808;52.478;13.378;2023-04-03T11:43:25;6.80;86.80
17381;DHT22;8808;52.478;13.378;2023-04-03T11:45:57;6.80;88.50
17381;DHT22;8808;52.478;13.378;2023-04-03T11:48:50;6.70;90.10
17381;DHT22;8808;52.478;13.378;2023-04-03T11:51:42;6.80;89.70
17381;DHT22;8808;52.478;13.378;2023-04-03T12:09:59;6.90;87.40
17381;DHT22;8808;52.478;13.378;2023-04-03T12:12:39;7.60;86.60
17381;DHT22;8808;52.478;13.378;2023-04-03T12:15:21;7.10;87.70
17381;DHT22;8808;52.478;13.378;2023-04-03T12:17:49;7.00;88.40
17381;DHT22;8808;52.478;13.378;2023-04-03T12:20:54;6.80;90.00
17381;DHT22;8808;52.478;13.378;2023-04-03T12:23:30;6.90;89.90
17381;DHT22;8808;52.478;13.378;2023-04-03T12:26:19;6.80;88.90
17381;DHT22;8808;52.478;13.378;2023-04-03T12:28:48;7.20;88.70
17381;DHT22;8808;52.478;13.378;2023-04-03T12:31:16;7.00;88.10
17381;DHT22;8808;52.478;13.378;2023-04-03T12:34:09;6.70;87.20
17381;DHT22;8808;52.478;13.378;2023-04-03T12:36:45;6.70;88.40
17381;DHT22;8808;52.478;13.378;2023-04-03T12:39:25;6.70;89.20
17381;DHT22;8808;52.478;13.378;2023-04-03T12:42:11;6.70;90.20
17381;DHT22;8808;52.478;13.378;2023-04-03T12:44:47;6.60;90.10
17381;DHT22;8808;52.478;13.378;2023-04-03T12:47:26;6.70;90.50
17381;DHT22;8808;52.478;13.378;2023-04-03T12:49:54;6.80;88.50
17381;DHT22;8808;52.478;13.378;2023-04-03T12:52:32;6.70;87.20
17381;DHT22;8808;52.478;13.378;2023-04-03T12:55:00;6.60;87.70
17381;DHT22;8808;52.478;13.378;2023-04-03T12:57:31;6.90;86.30
17381;DHT22;8808;52.478;13.378;2023-04-03T12:59:58;6.90;87.20
17381;DHT22;8808;52.478;13.378;2023-04-03T13:02:27;7.00;87.20
17381;DHT22;8808;52.478;13.378;2023-04-03T13:04:56;6.90;87.30
17381;DHT22;8808;52.478;13.378;2023-04-03T13:07:28;6.90;86.80
17381;DHT22;8808;52.478;13.378;2023-04-03T13:10:03;6.80;85.00
17381;DHT22;8808;52.478;13.378;2023-04-03T13:12:31;6.70;86.00
17381;DHT22;8808;52.478;13.378;2023-04-03T13:15:00;6.70;89.90
17381;DHT22;8808;52.478;13.378;2023-04-03T13:17:29;6.90;86.50
17381;DHT22;8808;52.478;13.378;2023-04-03T13:20:10;6.90;87.00
17381;DHT22;8808;52.478;13.378;2023-04-03T13:22:47;6.80;87.00
17381;DHT22;8808;52.478;13.378;2023-04-03T13:25:17;6.90;87.90
17381;DHT22;8808;52.478;13.378;2023-04-03T13:27:46;6.90;88.00
17381;DHT22;8808;52.478;13.378;2023-04-03T13:30:23;6.80;88.10
17381;DHT22;8808;52.478;13.378;2023-04-03T13:32:52;6.60;89.00
17381;DHT22;8808;52.478;13.378;2023-04-03T13:35:36;6.80;87.70
17381;DHT22;8808;52.478;13.378;2023-04-03T13:38:07;6.70;90.00
17381;DHT22;8808;52.478;13.378;2023-04-03T13:40:49;6.70;88.20
17381;DHT22;8808;52.478;13.378;2023-04-03T13:43:24;6.70;90.00
17381;DHT22;8808;52.478;13.378;2023-04-03T13:45:57;6.80;88.20
17381;DHT22;8808;52.478;13.378;2023-04-03T13:48:25;6.90;88.60
17381;DHT22;8808;52.478;13.378;2023-04-03T13:50:58;6.90;89.00
17381;DHT22;8808;52.478;13.378;2023-04-03T13:53:26;6.70;88.20
17381;DHT22;8808;52.478;13.378;2023-04-03T13:56:05;6.80;88.30
17381;DHT22;8808;52.478;13.378;2023-04-03T13:58:34;6.90;89.80
17381;DHT22;8808;52.478;13.378;2023-04-03T14:01:09;6.90;89.50
17381;DHT22;8808;52.478;13.378;2023-04-03T14:03:42;6.70;90.10
17381;DHT22;8808;52.478;13.378;2023-04-03T14:06:11;6.60;88.40
17381;DHT22;8808;52.478;13.378;2023-04-03T14:08:39;6.80;90.00
17381;DHT22;8808;52.478;13.378;2023-04-03T14:11:11;6.80;88.50
17381;DHT22;8808;52.478;13.378;2023-04-03T14:13:40;6.90;89.90
17381;DHT22;8808;52.478;13.378;2023-04-03T14:16:11;6.90;87.90
17381;DHT22;8808;52.478;13.378;2023-04-03T14:18:41;6.70;89.50
17381;DHT22;8808;52.478;13.378;2023-04-03T14:21:10;6.70;89.40
17381;DHT22;8808;52.478;13.378;2023-04-03T14:23:37;6.90;90.60
17381;DHT22;8808;52.478;13.378;2023-04-03T14:26:08;6.90;88.40
17381;DHT22;8808;52.478;13.378;2023-04-03T14:28:35;6.90;88.80
17381;DHT22;8808;52.478;13.378;2023-04-03T14:31:03;6.70;88.60
17381;DHT22;8808;52.478;13.378;2023-04-03T14:33:30;6.80;88.50
17381;DHT22;8808;52.478;13.378;2023-04-03T14:36:00;6.70;87.90
17381;DHT22;8808;52.478;13.378;2023-04-03T14:38:30;6.70;87.50
17381;DHT22;8808;52.478;13.378;2023-04-03T14:40:58;6.60;87.50
17381;DHT22;8808;52.478;13.378;2023-04-03T14:43:25;6.70;89.00
17381;DHT22;8808;52.478;13.378;2023-04-03T14:45:52;7.10;88.70
17381;DHT22;8808;52.478;13.378;2023-04-03T14:48:22;7.20;88.10
17381;DHT22;8808;52.478;13.378;2023-04-03T14:50:52;6.90;88.20
17381;DHT22;8808;52.478;13.378;2023-04-03T14:53:19;6.90;89.40
17381;DHT22;8808;52.478;13.378;2023-04-03T14:55:49;6.80;89.10
17381;DHT22;8808;52.478;13.378;2023-04-03T14:58:18;6.80;88.30
17381;DHT22;8808;52.478;13.378;2023-04-03T15:00:46;6.80;89.60
17381;DHT22;8808;52.478;13.378;2023-04-03T15:03:15;7.00;89.40
17381;DHT22;8808;52.478;13.378;2023-04-03T15:05:44;6.90;90.00
17381;DHT22;8808;52.478;13.378;2023-04-03T15:08:18;6.70;90.40
17381;DHT22;8808;52.478;13.378;2023-04-03T15:10:47;6.40;90.10
17381;DHT22;8808;52.478;13.378;2023-04-03T15:13:14;6.30;90.90
17381;DHT22;8808;52.478;13.378;2023-04-03T15:15:42;6.30;91.10
17381;DHT22;8808;52.478;13.378;2023-04-03T15:18:14;6.30;91.10
17381;DHT22;8808;52.478;13.378;2023-04-03T15:20:44;6.30;91.10
17381;DHT22;8808;52.478;13.378;2023-04-03T15:23:12;6.30;91.20
17381;DHT22;8808;52.478;13.378;2023-04-03T15:25:41;6.20;91.80
17381;DHT22;8808;52.478;13.378;2023-04-03T15:28:11;6.00;92.00
17381;DHT22;8808;52.478;13.378;2023-04-03T15:30:42;5.90;92.20
17381;DHT22;8808;52.478;13.378;2023-04-03T15:33:08;6.10;92.40
17381;DHT22;8808;52.478;13.378;2023-04-03T15:35:35;6.00;92.40
17381;DHT22;8808;52.478;13.378;2023-04-03T15:38:04;13.90;89.00
17381;DHT22;8808;52.478;13.378;2023-04-03T15:40:31;10.50;84.90
17381;DHT22;8808;52.478;13.378;2023-04-03T15:42:58;7.20;90.00
17381;DHT22;8808;52.478;13.378;2023-04-03T15:45:25;6.40;91.10
17381;DHT22;8808;52.478;13.378;2023-04-03T15:47:55;6.10;91.50
17381;DHT22;8808;52.478;13.378;2023-04-03T15:50:22;6.20;92.10
17381;DHT22;8808;52.478;13.378;2023-04-03T15:52:49;6.20;92.20
17381;DHT22;8808;52.478;13.378;2023-04-03T15:55:22;6.00;92.50
17381;DHT22;8808;52.478;13.378;2023-04-03T15:57:49;6.00;92.30
17381;DHT22;8808;52.478;13.378;2023-04-03T16:00:16;6.00;92.40
17381;DHT22;8808;52.478;13.378;2023-04-03T16:02:45;5.80;91.90
17381;DHT22;8808;52.478;13.378;2023-04-03T16:05:13;5.80;92.60
17381;DHT22;8808;52.478;13.378;2023-04-03T16:07:43;5.90;92.00
17381;DHT22;8808;52.478;13.378;2023-04-03T16:10:12;5.90;92.50
17381;DHT22;8808;52.478;13.378;2023-04-03T16:12:41;5.90;92.40
17381;DHT22;8808;52.478;13.378;2023-04-03T16:15:08;5.80;92.20
17381;DHT22;8808;52.478;13.378;2023-04-03T16:17:37;5.80;92.60
17381;DHT22;8808;52.478;13.378;2023-04-03T16:20:05;5.70;92.50
17381;DHT22;8808;52.478;13.378;2023-04-03T16:22:33;5.70;92.70
17381;DHT22;8808;52.478;13.378;2023-04-03T16:25:00;5.70;93.10
17381;DHT22;8808;52.478;13.378;2023-04-03T16:27:27;5.60;92.90
17381;DHT22;8808;52.478;13.378;2023-04-03T16:29:57;5.80;92.90
17381;DHT22;8808;52.478;13.378;2023-04-03T16:32:27;5.70;92.40
17381;DHT22;8808;52.478;13.378;2023-04-03T16:34:56;5.90;92.80